< < Back
Terminal Aerodrome Forecast


Current Version              Previous Versions:   1  2  3  4  5  6  7  8  9  

Terminal Aerodrome Forecast

637
FTUS44 KMOB 181100 RRA
TAFPNS
TAF
KPNS 181141Z 1812/1912 02011G19KT 3SM RA BR BKN007 BKN015 OVC030
     FM181500 02014KT 5SM RA OVC012
     FM181900 01017KT P6SM -RA BKN020
     FM190100 36012KT P6SM BKN030=

Latest METAR

859
SAUS70 KWBC 190100 RRC
MTRPNS
METAR KPNS 190053Z 35013G19KT 8SM OVC009 15/13 A3001 RMK AO2 SLP164
T01500128


USA.gov is the U.S. government's official web portal to all federal, state and local government web resources and services.